Eurodam — PHOS — position and weather

sailwx.info

Track history (hours):
 
Tides and Currents Weather Stations Pressure Air Temp Water Temp Dewpoint Dewpoint Depression Visibility Wind Speed Wind Dir Waves Ship Positions

Eurodam (Netherlands)

Last reported at 2015-Apr-19 20:33 UTC. Time now 2015-Apr-19 20:58 UTC.
Position N 40°54' E 003°05'.

Length 285 m; draft 8 m.

Type: Ship. MMSI: 245206000.

Date/timePositionNaut miles runAvg speedWind from/ knotsBaromVisibWave heightAir tempDewpointWater temp
2015-Apr-19 20:33N 40°54' E 003°05'1111.1
2015-Apr-19 19:33N 40°59' E 002°52'1110.7
2015-Apr-19 18:33N 41°04' E 002°39'1010.5
2015-Apr-19 17:34N 41°09' E 002°27'1110.6
2015-Apr-19 16:33N 41°14' E 002°15'7 7.2
2015-Apr-19 15:30N 41°21' E 002°11'0 0.0
2015-Apr-19 14:10N 41°21' E 002°11'0 0.0
2015-Apr-19 12:16N 41°21' E 002°11'0 0.0
2015-Apr-19 11:28N 41°21' E 002°11'0 0.0
2015-Apr-19 10:29N 41°21' E 002°11'0 0.0
2015-Apr-19 09:31N 41°21' E 002°11'0 0.0
2015-Apr-19 08:21N 41°21' E 002°11'0 0.0
2015-Apr-19 07:21N 41°21' E 002°11'0 0.0
2015-Apr-19 06:15N 41°21' E 002°11'0 0.0
2015-Apr-19 05:33N 41°21' E 002°11'0 0.0
2015-Apr-19 04:28N 41°21' E 002°11'16 7.9
2015-Apr-19 02:26N 41°06' E 002°03'1413.0
2015-Apr-19 01:21N 40°54' E 001°53'1013.2
2015-Apr-19 00:33N 40°45' E 001°45'1313.3
2015-Apr-18 23:34N 40°35' E 001°35'1312.9
2015-Apr-18 22:33N 40°25' E 001°24'1312.8
2015-Apr-18 21:33N 40°14' E 001°14'1414.0
2015-Apr-18 20:32N 40°02' E 001°04'1414.0
2015-Apr-18 19:34N 39°51' E 000°54'1413.6
2015-Apr-18 18:33N 39°44' E 000°39'3113.8
2015-Apr-18 16:19N 39°32' E 000°02'1013.6
2015-Apr-18 15:33N 39°28' W 000°10'6 6.0
2015-Apr-18 14:33N 39°28' W 000°18'0 0.0
2015-Apr-18 13:32N 39°28' W 000°18'0 0.0
2015-Apr-18 12:32N 39°28' W 000°18'0 0.0
2015-Apr-18 11:31N 39°28' W 000°18'0 0.0
2015-Apr-18 10:32N 39°28' W 000°18'0 0.0
2015-Apr-18 09:31N 39°28' W 000°18'0 0.0
2015-Apr-18 08:33N 39°28' W 000°18'0 0.0
2015-Apr-18 07:33N 39°28' W 000°18'0 0.0
2015-Apr-18 06:32N 39°28' W 000°18'1 0.5
2015-Apr-18 05:33N 39°27' W 000°18'6 6.2
2015-Apr-18 04:33N 39°23' W 000°11'3710.4
2015-Apr-18 01:00N 38°54' E 000°18'712.3 250 / 91017.410.8 15.914.316.3
2015-Apr-18 00:24N 38°49' E 000°24'10 9.5
2015-Apr-17 23:22N 38°39' E 000°25'615.3
2015-Apr-17 23:00N 38°36' E 000°18'710.8 190 / 61017.410.8 15.914.316.3
2015-Apr-17 22:20N 38°29' E 000°17'810.8
2015-Apr-17 21:33N 38°22' E 000°11'1211.9
2015-Apr-17 20:33N 38°12' E 000°02'1212.1
2015-Apr-17 19:33N 38°02' W 000°06'1110.9
2015-Apr-17 18:33N 37°53' W 000°14'1111.3
2015-Apr-17 17:33N 37°44' W 000°22'1211.6
2015-Apr-17 16:33N 37°34' W 000°30'1313.2
2015-Apr-17 15:33N 37°29' W 000°46'1211.4
2015-Apr-17 14:32N 37°34' W 000°59'2 0.3
2015-Apr-17 08:04N 37°36' W 000°59'0 0.0
2015-Apr-17 07:28N 37°36' W 000°59'0 0.0
2015-Apr-17 06:28N 37°36' W 000°59'0 0.1
2015-Apr-17 04:31N 37°36' W 000°59'8 7.8
2015-Apr-17 03:33N 37°29' W 001°03'1615.8
2015-Apr-17 02:33N 37°15' W 001°13'194 7.6
2015-Apr-16 01:00N 36°06' W 005°00'912.5 130 / 41017.710.8 16.414.216.8
2015-Apr-16 00:16N 36°02' W 005°10'1014.3
2015-Apr-15 23:33N 35°59' W 005°22'92 4.1
2015-Apr-15 01:00N 36°24' W 007°12'1414.5 180 / 141016.410.8 16.613.917.4
2015-Apr-15 00:00N 36°24' W 007°30'1615.7 180 / 141016.410.8 16.613.917.4
2015-Apr-14 23:00N 36°18' W 007°48'27115.9 180 / 141016.710.8 16.613.917.4
2015-Apr-14 06:00N 36°36' W 013°24'4414.6 080 / 61013.3 5.4 0.515.713.216.7
2015-Apr-14 03:00N 36°42' W 014°18'1919.2 050 / 71015.010.8 15.612.716.7
2015-Apr-14 02:00N 36°42' W 014°42'1414.4 040 / 91016.010.8 15.612.716.7
2015-Apr-14 01:00N 36°42' W 015°00'34716.5 040 / 191017.010.8 15.612.716.7
2015-Apr-13 04:00N 37°18' W 022°12'1615.5 040 / 351018.210.8 15.611.416.4
2015-Apr-13 03:00N 37°24' W 022°30'1414.3 030 / 351017.710.8 15.611.416.4
2015-Apr-13 02:00N 37°24' W 022°48'4217.1 010 / 401018.210.8 15.611.416.4
2015-Apr-12 23:34N 37°30' W 023°40'1717.1
2015-Apr-12 22:34N 37°32' W 024°01'1717.1
2015-Apr-12 21:34N 37°34' W 024°23'1717.4
2015-Apr-12 20:34N 37°36' W 024°45'3 4.9
2015-Apr-12 20:00N 37°36' W 024°48'1534.7 360 / 521018.0 5.4 1.021.0 9.316.0
2015-Apr-12 19:34N 37°38' W 025°07'1818.0
2015-Apr-12 18:34N 37°41' W 025°29'9 8.8
2015-Apr-12 17:33N 37°44' W 025°40'0 0.0
2015-Apr-12 16:33N 37°44' W 025°40'0 0.0
2015-Apr-12 15:33N 37°44' W 025°40'0 0.0
2015-Apr-12 14:33N 37°44' W 025°40'0 0.0
2015-Apr-12 13:33N 37°44' W 025°40'0 0.0
2015-Apr-12 12:33N 37°44' W 025°40'0 0.0
2015-Apr-12 11:33N 37°44' W 025°40'0 0.0
2015-Apr-12 10:34N 37°44' W 025°40'0 0.4
2015-Apr-12 09:34N 37°44' W 025°39'6 6.2
2015-Apr-12 08:33N 37°40' W 025°45'1818.1
2015-Apr-12 07:34N 37°35' W 026°07'1918.5
2015-Apr-12 06:33N 37°31' W 026°30'1221.1
2015-Apr-12 06:00N 37°24' W 026°42'819.2 350 / 351019.110.8 5.013.3 6.217.0
2015-Apr-12 05:33N 37°26' W 026°52'1818.5
2015-Apr-12 04:33N 37°21' W 027°15'1818.2
2015-Apr-12 03:33N 37°16' W 027°37'1817.9
2015-Apr-12 02:33N 37°12' W 027°59'1221.5
2015-Apr-12 02:00N 37°06' W 028°12'816.2 320 / 351021.310.8 13.7 5.117.5
2015-Apr-12 01:30N 37°07' W 028°22'918.5
2015-Apr-12 01:00N 37°00' W 028°30'1023.8 320 / 451021.510.8 13.7 5.117.5
2015-Apr-12 00:33N 37°03' W 028°43'1917.9
2015-Apr-11 23:31N 36°58' W 029°05'8715.7
2015-Apr-11 18:00N 36°30' W 030°48'17619.6 350 / 351019.7 5.4 1.516.510.117.0
2015-Apr-11 09:00N 35°42' W 034°18'9418.9 230 / 251019.210.8 2.018.915.219.5
2015-Apr-11 04:00N 36°18' W 036°06'6363.1 200 / 161021.6 5.4 18.014.319.9
2015-Apr-11 03:00N 35°18' W 036°30'39118.6 200 / 161021.6 5.4 18.014.319.9
2015-Apr-10 06:00N 33°30' W 044°06'2625.7 180 / 141026.310.8 0.518.414.319.8
2015-Apr-10 05:00N 33°24' W 044°36'1616.2 180 / 101027.410.8 18.614.320.7
2015-Apr-10 04:00N 33°18' W 044°54'2020.1 180 / 101027.810.8 18.614.320.7
2015-Apr-10 03:00N 33°18' W 045°18'2120.9 180 / 131028.410.8 18.614.320.7
2015-Apr-10 02:00N 33°12' W 045°42'   180 / 131028.8 5.4 18.614.320.7
Track history (hours):
 
Tides and Currents Weather Stations Pressure Air Temp Water Temp Dewpoint Dewpoint Depression Visibility Wind Speed Wind Dir Waves Ship Positions

Eurodam (Netherlands)

Last reported at 2015-Apr-19 20:33 UTC. Time now 2015-Apr-19 20:58 UTC.
Position N 40°54' E 003°05'.

Length 285 m; draft 8 m.

Type: Ship. MMSI: 245206000.

Date/timePositionNaut miles runAvg speedWind from/ knotsBaromVisibWave heightAir tempDewpointWater temp
2015-Apr-19 20:33N 40°54' E 003°05'1111.1
2015-Apr-19 19:33N 40°59' E 002°52'1110.7
2015-Apr-19 18:33N 41°04' E 002°39'1010.5
2015-Apr-19 17:34N 41°09' E 002°27'1110.6
2015-Apr-19 16:33N 41°14' E 002°15'7 7.2
2015-Apr-19 15:30N 41°21' E 002°11'0 0.0
2015-Apr-19 14:10N 41°21' E 002°11'0 0.0
2015-Apr-19 12:16N 41°21' E 002°11'0 0.0
2015-Apr-19 11:28N 41°21' E 002°11'0 0.0
2015-Apr-19 10:29N 41°21' E 002°11'0 0.0
2015-Apr-19 09:31N 41°21' E 002°11'0 0.0
2015-Apr-19 08:21N 41°21' E 002°11'0 0.0
2015-Apr-19 07:21N 41°21' E 002°11'0 0.0
2015-Apr-19 06:15N 41°21' E 002°11'0 0.0
2015-Apr-19 05:33N 41°21' E 002°11'0 0.0
2015-Apr-19 04:28N 41°21' E 002°11'16 7.9
2015-Apr-19 02:26N 41°06' E 002°03'1413.0
2015-Apr-19 01:21N 40°54' E 001°53'1013.2
2015-Apr-19 00:33N 40°45' E 001°45'1313.3
2015-Apr-18 23:34N 40°35' E 001°35'1312.9
2015-Apr-18 22:33N 40°25' E 001°24'1312.8
2015-Apr-18 21:33N 40°14' E 001°14'1414.0
2015-Apr-18 20:32N 40°02' E 001°04'1414.0
2015-Apr-18 19:34N 39°51' E 000°54'1413.6
2015-Apr-18 18:33N 39°44' E 000°39'3113.8
2015-Apr-18 16:19N 39°32' E 000°02'1013.6
2015-Apr-18 15:33N 39°28' W 000°10'6 6.0
2015-Apr-18 14:33N 39°28' W 000°18'0 0.0
2015-Apr-18 13:32N 39°28' W 000°18'0 0.0
2015-Apr-18 12:32N 39°28' W 000°18'0 0.0
2015-Apr-18 11:31N 39°28' W 000°18'0 0.0
2015-Apr-18 10:32N 39°28' W 000°18'0 0.0
2015-Apr-18 09:31N 39°28' W 000°18'0 0.0
2015-Apr-18 08:33N 39°28' W 000°18'0 0.0
2015-Apr-18 07:33N 39°28' W 000°18'0 0.0
2015-Apr-18 06:32N 39°28' W 000°18'1 0.5
2015-Apr-18 05:33N 39°27' W 000°18'6 6.2
2015-Apr-18 04:33N 39°23' W 000°11'3710.4
2015-Apr-18 01:00N 38°54' E 000°18'712.3 250 / 91017.410.8 15.914.316.3
2015-Apr-18 00:24N 38°49' E 000°24'10 9.5
2015-Apr-17 23:22N 38°39' E 000°25'615.3
2015-Apr-17 23:00N 38°36' E 000°18'710.8 190 / 61017.410.8 15.914.316.3
2015-Apr-17 22:20N 38°29' E 000°17'810.8
2015-Apr-17 21:33N 38°22' E 000°11'1211.9
2015-Apr-17 20:33N 38°12' E 000°02'1212.1
2015-Apr-17 19:33N 38°02' W 000°06'1110.9
2015-Apr-17 18:33N 37°53' W 000°14'1111.3
2015-Apr-17 17:33N 37°44' W 000°22'1211.6
2015-Apr-17 16:33N 37°34' W 000°30'1313.2
2015-Apr-17 15:33N 37°29' W 000°46'1211.4
2015-Apr-17 14:32N 37°34' W 000°59'2 0.3
2015-Apr-17 08:04N 37°36' W 000°59'0 0.0
2015-Apr-17 07:28N 37°36' W 000°59'0 0.0
2015-Apr-17 06:28N 37°36' W 000°59'0 0.1
2015-Apr-17 04:31N 37°36' W 000°59'8 7.8
2015-Apr-17 03:33N 37°29' W 001°03'1615.8
2015-Apr-17 02:33N 37°15' W 001°13'194 7.6
2015-Apr-16 01:00N 36°06' W 005°00'912.5 130 / 41017.710.8 16.414.216.8
2015-Apr-16 00:16N 36°02' W 005°10'1014.3
2015-Apr-15 23:33N 35°59' W 005°22'92 4.1
2015-Apr-15 01:00N 36°24' W 007°12'1414.5 180 / 141016.410.8 16.613.917.4
2015-Apr-15 00:00N 36°24' W 007°30'1615.7 180 / 141016.410.8 16.613.917.4
2015-Apr-14 23:00N 36°18' W 007°48'27115.9 180 / 141016.710.8 16.613.917.4
2015-Apr-14 06:00N 36°36' W 013°24'4414.6 080 / 61013.3 5.4 0.515.713.216.7
2015-Apr-14 03:00N 36°42' W 014°18'1919.2 050 / 71015.010.8 15.612.716.7
2015-Apr-14 02:00N 36°42' W 014°42'1414.4 040 / 91016.010.8 15.612.716.7
2015-Apr-14 01:00N 36°42' W 015°00'34716.5 040 / 191017.010.8 15.612.716.7
2015-Apr-13 04:00N 37°18' W 022°12'1615.5 040 / 351018.210.8 15.611.416.4
2015-Apr-13 03:00N 37°24' W 022°30'1414.3 030 / 351017.710.8 15.611.416.4
2015-Apr-13 02:00N 37°24' W 022°48'4217.1 010 / 401018.210.8 15.611.416.4
2015-Apr-12 23:34N 37°30' W 023°40'1717.1
2015-Apr-12 22:34N 37°32' W 024°01'1717.1
2015-Apr-12 21:34N 37°34' W 024°23'1717.4
2015-Apr-12 20:34N 37°36' W 024°45'3 4.9
2015-Apr-12 20:00N 37°36' W 024°48'1534.7 360 / 521018.0 5.4 1.021.0 9.316.0
2015-Apr-12 19:34N 37°38' W 025°07'1818.0
2015-Apr-12 18:34N 37°41' W 025°29'9 8.8
2015-Apr-12 17:33N 37°44' W 025°40'0 0.0
2015-Apr-12 16:33N 37°44' W 025°40'0 0.0
2015-Apr-12 15:33N 37°44' W 025°40'0 0.0
2015-Apr-12 14:33N 37°44' W 025°40'0 0.0
2015-Apr-12 13:33N 37°44' W 025°40'0 0.0
2015-Apr-12 12:33N 37°44' W 025°40'0 0.0
2015-Apr-12 11:33N 37°44' W 025°40'0 0.0
2015-Apr-12 10:34N 37°44' W 025°40'0 0.4
2015-Apr-12 09:34N 37°44' W 025°39'6 6.2
2015-Apr-12 08:33N 37°40' W 025°45'1818.1
2015-Apr-12 07:34N 37°35' W 026°07'1918.5
2015-Apr-12 06:33N 37°31' W 026°30'1221.1
2015-Apr-12 06:00N 37°24' W 026°42'819.2 350 / 351019.110.8 5.013.3 6.217.0
2015-Apr-12 05:33N 37°26' W 026°52'1818.5
2015-Apr-12 04:33N 37°21' W 027°15'1818.2
2015-Apr-12 03:33N 37°16' W 027°37'1817.9
2015-Apr-12 02:33N 37°12' W 027°59'1221.5
2015-Apr-12 02:00N 37°06' W 028°12'816.2 320 / 351021.310.8 13.7 5.117.5
2015-Apr-12 01:30N 37°07' W 028°22'918.5
2015-Apr-12 01:00N 37°00' W 028°30'1023.8 320 / 451021.510.8 13.7 5.117.5
2015-Apr-12 00:33N 37°03' W 028°43'1917.9
2015-Apr-11 23:31N 36°58' W 029°05'8715.7
2015-Apr-11 18:00N 36°30' W 030°48'17619.6 350 / 351019.7 5.4 1.516.510.117.0
2015-Apr-11 09:00N 35°42' W 034°18'9418.9 230 / 251019.210.8 2.018.915.219.5
2015-Apr-11 04:00N 36°18' W 036°06'6363.1 200 / 161021.6 5.4 18.014.319.9
2015-Apr-11 03:00N 35°18' W 036°30'39118.6 200 / 161021.6 5.4 18.014.319.9
2015-Apr-10 06:00N 33°30' W 044°06'2625.7 180 / 141026.310.8 0.518.414.319.8
2015-Apr-10 05:00N 33°24' W 044°36'1616.2 180 / 101027.410.8 18.614.320.7
2015-Apr-10 04:00N 33°18' W 044°54'2020.1 180 / 101027.810.8 18.614.320.7
2015-Apr-10 03:00N 33°18' W 045°18'2120.9 180 / 131028.410.8 18.614.320.7
2015-Apr-10 02:00N 33°12' W 045°42'   180 / 131028.8 5.4 18.614.320.7

Dump ship's entire track history